| time (UTC) | temp F | wind direction | speed MPH | gust MPH | rain 1hr in | rain 24hr in | rain mn in | humidity % | barometer mb |
| 20260505153304 | 68 | 273 | 5.0 | 7.0 | 0.00 | 0.01 | 0.00 | 69 | 1005.4 |
| 20260505153204 | 68 | 271 | 4.0 | 7.0 | 0.00 | 0.01 | 0.00 | 69 | 1005.4 |
| 20260505153104 | 68 | 269 | 4.0 | 7.0 | 0.00 | 0.01 | 0.00 | 70 | 1005.4 |
| 20260505153004 | 67 | 267 | 4.0 | 7.0 | 0.00 | 0.01 | 0.00 | 70 | 1005.4 |
| 20260505152904 | 67 | 274 | 4.0 | 7.0 | 0.00 | 0.01 | 0.00 | 70 | 1005.3 |
| 20260505152804 | 67 | 281 | 4.0 | 6.0 | 0.00 | 0.01 | 0.00 | 70 | 1005.3 |
| 20260505152703 | 67 | 285 | 4.0 | 6.0 | 0.00 | 0.01 | 0.00 | 70 | 1005.5 |
| 20260505152604 | 66 | 280 | 4.0 | 6.0 | 0.00 | 0.01 | 0.00 | 70 | 1005.4 |
| 20260505152504 | 66 | 275 | 5.0 | 6.0 | 0.00 | 0.01 | 0.00 | 69 | 1005.5 |
| 20260505152403 | 66 | 274 | 4.0 | 6.0 | 0.00 | 0.01 | 0.00 | 69 | 1005.5 |
| 20260505152305 | 66 | 256 | 4.0 | 6.0 | 0.00 | 0.01 | 0.00 | 69 | 1005.4 |
| 20260505152203 | 66 | 247 | 4.0 | 6.0 | 0.00 | 0.01 | 0.00 | 68 | 1005.5 |
| 20260505152103 | 66 | 249 | 4.0 | 6.0 | 0.00 | 0.01 | 0.00 | 68 | 1005.6 |
| 20260505151704 | 66 | 266 | 6.0 | 8.0 | 0.00 | 0.01 | 0.00 | 66 | 1005.7 |
| 20260505151603 | 66 | 262 | 6.0 | 8.0 | 0.00 | 0.01 | 0.00 | 65 | 1005.5 |
| 20260505151504 | 66 | 253 | 6.0 | 8.0 | 0.00 | 0.01 | 0.00 | 65 | 1005.7 |
| 20260505151404 | 67 | 243 | 5.0 | 8.0 | 0.00 | 0.01 | 0.00 | 63 | 1005.7 |
| 20260505151303 | 67 | 239 | 5.0 | 8.0 | 0.00 | 0.01 | 0.00 | 63 | 1005.7 |
| 20260505151203 | 67 | 237 | 5.0 | 8.0 | 0.00 | 0.01 | 0.00 | 63 | 1005.6 |
| 20260505151103 | 67 | 234 | 5.0 | 8.0 | 0.00 | 0.01 | 0.00 | 63 | 1005.7 |
| 20260505151003 | 68 | 227 | 5.0 | 8.0 | 0.00 | 0.01 | 0.00 | 62 | 1005.6 |
| 20260505150903 | 68 | 231 | 5.0 | 8.0 | 0.00 | 0.01 | 0.00 | 62 | 1005.6 |
| 20260505150803 | 68 | 232 | 5.0 | 8.0 | 0.00 | 0.01 | 0.00 | 62 | 1005.7 |
| 20260505150703 | 69 | 232 | 4.0 | 5.0 | 0.00 | 0.01 | 0.00 | 63 | 1005.7 |
| 20260505150603 | 69 | 231 | 4.0 | 5.0 | 0.00 | 0.01 | 0.00 | 63 | 1005.5 |
| 20260505150503 | 69 | 229 | 4.0 | 5.0 | 0.00 | 0.01 | 0.00 | 63 | 1005.7 |
| 20260505150403 | 69 | 228 | 4.0 | 5.0 | 0.00 | 0.01 | 0.00 | 63 | 1005.6 |
| 20260505150304 | 69 | 223 | 4.0 | 5.0 | 0.00 | 0.01 | 0.00 | 63 | 1005.5 |
| 20260505150204 | 69 | 222 | 4.0 | 5.0 | 0.00 | 0.01 | 0.00 | 63 | 1005.6 |
| 20260505150104 | 69 | 220 | 4.0 | 5.0 | 0.00 | 0.01 | 0.00 | 64 | 1005.6 |
| 20260505140604 | 71 | 231 | 7.0 | 8.0 | 0.00 | 0.01 | 0.00 | 61 | 1005.8 |
| 20260505140503 | 71 | 234 | 7.0 | 8.0 | 0.00 | 0.01 | 0.00 | 61 | 1005.9 |
| 20260505140403 | 71 | 241 | 7.0 | 8.0 | 0.00 | 0.01 | 0.00 | 61 | 1005.8 |
| 20260505140303 | 71 | 244 | 7.0 | 8.0 | 0.00 | 0.01 | 0.00 | 61 | 1005.9 |
| 20260505140203 | 71 | 244 | 7.0 | 8.0 | 0.00 | 0.01 | 0.00 | 61 | 1005.8 |
| 20260505130303 | 72 | 272 | 6.0 | 11.0 | 0.00 | 0.01 | 0.00 | 55 | 1006.1 |
| 20260505130203 | 72 | 283 | 6.0 | 10.0 | 0.00 | 0.01 | 0.00 | 56 | 1006.0 |
| 20260505130103 | 72 | 277 | 5.0 | 10.0 | 0.00 | 0.01 | 0.00 | 56 | 1006.1 |
| 20260505125004 | 73 | 254 | 6.0 | 8.0 | 0.00 | 0.01 | 0.00 | 53 | 1006.1 |
| 20260505124904 | 73 | 264 | 5.0 | 8.0 | 0.00 | 0.01 | 0.00 | 52 | 1006.1 |
| 20260505124803 | 73 | 264 | 5.0 | 8.0 | 0.00 | 0.01 | 0.00 | 52 | 1006.1 |
| 20260505124704 | 74 | 258 | 4.0 | 8.0 | 0.00 | 0.01 | 0.00 | 52 | 1006.1 |
| 20260505124604 | 74 | 263 | 4.0 | 8.0 | 0.00 | 0.01 | 0.00 | 53 | 1006.2 |
| 20260505124503 | 74 | 262 | 4.0 | 6.0 | 0.00 | 0.01 | 0.00 | 53 | 1006.1 |
| 20260505124403 | 74 | 259 | 3.0 | 6.0 | 0.00 | 0.01 | 0.00 | 53 | 1006.1 |
| 20260505124303 | 74 | 252 | 3.0 | 5.0 | 0.00 | 0.01 | 0.00 | 53 | 1006.2 |
| 20260505124203 | 74 | 255 | 3.0 | 5.0 | 0.00 | 0.01 | 0.00 | 53 | 1006.2 |
| 20260505124103 | 74 | 257 | 3.0 | 5.0 | 0.00 | 0.01 | 0.00 | 53 | 1006.2 |
| 20260505124003 | 74 | 258 | 3.0 | 4.0 | 0.00 | 0.01 | 0.00 | 53 | 1006.1 |
| 20260505123903 | 74 | 251 | 3.0 | 4.0 | 0.00 | 0.01 | 0.00 | 53 | 1006.1 |
| 20260505123803 | 74 | 250 | 3.0 | 4.0 | 0.00 | 0.01 | 0.00 | 53 | 1006.1 |
| 20260505123703 | 74 | 243 | 3.0 | 4.0 | 0.00 | 0.01 | 0.00 | 53 | 1006.1 |
| 20260505123604 | 74 | 234 | 3.0 | 4.0 | 0.00 | 0.01 | 0.00 | 53 | 1006.2 |
| 20260505123504 | 74 | 232 | 3.0 | 4.0 | 0.00 | 0.01 | 0.00 | 53 | 1006.1 |
| 20260505123404 | 74 | 227 | 3.0 | 4.0 | 0.00 | 0.01 | 0.00 | 54 | 1006.1 |
| 20260505123304 | 74 | 245 | 3.0 | 8.0 | 0.00 | 0.01 | 0.00 | 54 | 1006.1 |
| 20260505123204 | 74 | 240 | 4.0 | 8.0 | 0.00 | 0.01 | 0.00 | 54 | 1006.1 |
| 20260505123104 | 74 | 218 | 4.0 | 8.0 | 0.00 | 0.01 | 0.00 | 54 | 1006.2 |
| 20260505123004 | 74 | 229 | 4.0 | 8.0 | 0.00 | 0.01 | 0.00 | 56 | 1006.2 |
| 20260505122903 | 74 | 235 | 4.0 | 8.0 | 0.00 | 0.01 | 0.00 | 56 | 1006.2 |
| 20260505122803 | 74 | 215 | 4.0 | 8.0 | 0.00 | 0.01 | 0.00 | 57 | 1006.1 |
| 20260505122703 | 74 | 209 | 4.0 | 8.0 | 0.00 | 0.01 | 0.00 | 57 | 1006.2 |
| 20260505122603 | 74 | 273 | 4.0 | 8.0 | 0.00 | 0.01 | 0.00 | 56 | 1006.2 |
| 20260505122503 | 73 | 224 | 5.0 | 8.0 | 0.00 | 0.01 | 0.00 | 55 | 1006.2 |
| 20260505122403 | 73 | 236 | 5.0 | 8.0 | 0.00 | 0.01 | 0.00 | 55 | 1006.1 |
| 20260505122305 | 73 | 188 | 4.0 | 8.0 | 0.00 | 0.01 | 0.00 | 54 | 1006.3 |
| 20260505122203 | 72 | 212 | 4.0 | 6.0 | 0.00 | 0.01 | 0.00 | 58 | 1006.3 |
| 20260505122103 | 72 | 250 | 4.0 | 6.0 | 0.00 | 0.01 | 0.00 | 58 | 1006.2 |
| 20260505121704 | 73 | 221 | 5.0 | 9.0 | 0.00 | 0.01 | 0.00 | 56 | 1006.3 |
| 20260505121604 | 73 | 223 | 5.0 | 9.0 | 0.00 | 0.01 | 0.00 | 56 | 1006.3 |
| 20260505121504 | 73 | 236 | 5.0 | 9.0 | 0.00 | 0.01 | 0.00 | 57 | 1006.3 |
| 20260505121404 | 73 | 250 | 5.0 | 6.0 | 0.00 | 0.01 | 0.00 | 59 | 1006.3 |
| 20260505121304 | 73 | 249 | 5.0 | 6.0 | 0.00 | 0.01 | 0.00 | 60 | 1006.3 |
| 20260505121204 | 73 | 255 | 5.0 | 6.0 | 0.00 | 0.01 | 0.00 | 60 | 1006.5 |
| 20260505121104 | 72 | 269 | 5.0 | 6.0 | 0.00 | 0.01 | 0.00 | 61 | 1006.4 |
| 20260505121004 | 72 | 282 | 5.0 | 6.0 | 0.00 | 0.01 | 0.00 | 64 | 1006.3 |
| 20260505120903 | 71 | 290 | 5.0 | 6.0 | 0.00 | 0.01 | 0.00 | 64 | 1006.4 |
| 20260505120805 | 71 | 288 | 5.0 | 6.0 | 0.00 | 0.01 | 0.00 | 64 | 1006.5 |
| 20260505120704 | 71 | 298 | 5.0 | 6.0 | 0.00 | 0.01 | 0.00 | 65 | 1006.3 |
| 20260505120604 | 68 | 305 | 5.0 | 6.0 | 0.00 | 0.01 | 0.00 | 66 | 1006.3 |
| 20260505120503 | 68 | 305 | 5.0 | 6.0 | 0.00 | 0.01 | 0.00 | 66 | 1006.4 |
| 20260505120403 | 68 | 301 | 5.0 | 6.0 | 0.00 | 0.01 | 0.00 | 66 | 1006.5 |
| 20260505120303 | 68 | 294 | 5.0 | 6.0 | 0.00 | 0.01 | 0.00 | 66 | 1006.4 |
| 20260505120204 | 68 | 287 | 5.0 | 6.0 | 0.00 | 0.01 | 0.00 | 66 | 1006.5 |
| 20260505120103 | 68 | 276 | 5.0 | 6.0 | 0.00 | 0.01 | 0.00 | 66 | 1006.4 |
| 20260505120004 | 68 | 263 | 5.0 | 6.0 | 0.00 | 0.01 | 0.00 | 66 | 1006.6 |
| 20260505115903 | 68 | 253 | 5.0 | 6.0 | 0.00 | 0.01 | 0.00 | 67 | 1006.4 |
| 20260505115803 | 68 | 263 | 5.0 | 6.0 | 0.00 | 0.01 | 0.00 | 67 | 1006.6 |
| 20260505115704 | 68 | 260 | 5.0 | 6.0 | 0.00 | 0.01 | 0.00 | 67 | 1006.5 |
| 20260505115604 | 67 | 262 | 5.0 | 6.0 | 0.00 | 0.01 | 0.00 | 67 | 1006.6 |
| 20260505115504 | 67 | 259 | 5.0 | 6.0 | 0.00 | 0.01 | 0.00 | 67 | 1006.6 |
| 20260505115404 | 67 | 260 | 5.0 | 6.0 | 0.00 | 0.01 | 0.00 | 68 | 1006.6 |
| 20260505115305 | 67 | 263 | 5.0 | 6.0 | 0.00 | 0.01 | 0.00 | 68 | 1006.6 |
| 20260505115204 | 67 | 268 | 5.0 | 6.0 | 0.00 | 0.01 | 0.00 | 68 | 1006.8 |
| 20260505115104 | 67 | 268 | 5.0 | 6.0 | 0.00 | 0.01 | 0.00 | 68 | 1006.6 |
| 20260505115005 | 67 | 268 | 5.0 | 6.0 | 0.00 | 0.01 | 0.00 | 68 | 1006.6 |
| 20260505114904 | 67 | 269 | 5.0 | 6.0 | 0.00 | 0.01 | 0.00 | 67 | 1006.6 |
| 20260505114803 | 67 | 257 | 5.0 | 8.0 | 0.00 | 0.01 | 0.00 | 67 | 1006.6 |
| 20260505114704 | 67 | 249 | 5.0 | 8.0 | 0.00 | 0.01 | 0.00 | 67 | 1006.6 |
| 20260505114603 | 67 | 244 | 5.0 | 8.0 | 0.00 | 0.01 | 0.00 | 67 | 1006.5 |
| 20260505114503 | 67 | 242 | 5.0 | 8.0 | 0.00 | 0.01 | 0.00 | 67 | 1006.7 |
| 20260505114403 | 67 | 242 | 6.0 | 8.0 | 0.00 | 0.01 | 0.00 | 67 | 1006.6 |
| 20260505114303 | 67 | 237 | 6.0 | 8.0 | 0.00 | 0.01 | 0.00 | 67 | 1006.6 |
| 20260505114203 | 67 | 234 | 6.0 | 8.0 | 0.00 | 0.01 | 0.00 | 66 | 1006.6 |
| 20260505114103 | 67 | 229 | 7.0 | 8.0 | 0.00 | 0.01 | 0.00 | 66 | 1006.6 |
| 20260505114003 | 67 | 239 | 7.0 | 8.0 | 0.00 | 0.01 | 0.00 | 66 | 1006.7 |
| 20260505113903 | 67 | 243 | 7.0 | 8.0 | 0.00 | 0.01 | 0.00 | 66 | 1006.6 |
| 20260505113803 | 68 | 245 | 6.0 | 8.0 | 0.00 | 0.01 | 0.00 | 66 | 1006.6 |
| 20260505113704 | 68 | 245 | 6.0 | 8.0 | 0.00 | 0.01 | 0.00 | 66 | 1006.7 |
| 20260505113604 | 68 | 249 | 6.0 | 8.0 | 0.00 | 0.01 | 0.00 | 66 | 1006.6 |
| 20260505113504 | 68 | 248 | 6.0 | 8.0 | 0.00 | 0.01 | 0.00 | 65 | 1006.6 |
| 20260505113404 | 68 | 239 | 6.0 | 8.0 | 0.00 | 0.01 | 0.00 | 65 | 1006.6 |
| 20260505113304 | 68 | 224 | 6.0 | 9.0 | 0.00 | 0.01 | 0.00 | 65 | 1006.7 |
| 20260505113204 | 68 | 225 | 6.0 | 9.0 | 0.00 | 0.01 | 0.00 | 66 | 1006.5 |
| 20260505113104 | 68 | 229 | 5.0 | 10.0 | 0.00 | 0.01 | 0.00 | 66 | 1006.6 |
| 20260505113004 | 68 | 228 | 6.0 | 10.0 | 0.00 | 0.01 | 0.00 | 67 | 1006.7 |
| 20260505112904 | 68 | 228 | 6.0 | 10.0 | 0.00 | 0.01 | 0.00 | 67 | 1006.7 |
| 20260505112804 | 68 | 229 | 6.0 | 10.0 | 0.00 | 0.01 | 0.00 | 67 | 1006.6 |
| 20260505112704 | 68 | 230 | 6.0 | 10.0 | 0.00 | 0.01 | 0.00 | 67 | 1006.6 |
| 20260505112604 | 68 | 220 | 7.0 | 10.0 | 0.00 | 0.01 | 0.00 | 67 | 1006.6 |
| 20260505112503 | 68 | 214 | 7.0 | 10.0 | 0.00 | 0.01 | 0.00 | 67 | 1006.8 |
| 20260505112403 | 68 | 225 | 7.0 | 10.0 | 0.00 | 0.01 | 0.00 | 68 | 1006.5 |
| 20260505112305 | 68 | 254 | 7.0 | 10.0 | 0.00 | 0.01 | 0.00 | 69 | 1006.8 |
| 20260505112203 | 68 | 244 | 7.0 | 10.0 | 0.00 | 0.01 | 0.00 | 70 | 1006.8 |
| 20260505112103 | 68 | 262 | 7.0 | 10.0 | 0.00 | 0.01 | 0.00 | 70 | 1006.6 |
| 20260505111703 | 68 | 247 | 5.0 | 9.0 | 0.00 | 0.01 | 0.00 | 70 | 1006.6 |
| 20260505111603 | 67 | 249 | 6.0 | 9.0 | 0.00 | 0.01 | 0.00 | 70 | 1006.6 |
| 20260505111503 | 67 | 247 | 5.0 | 9.0 | 0.00 | 0.01 | 0.00 | 70 | 1006.7 |
| 20260505111403 | 67 | 245 | 5.0 | 9.0 | 0.00 | 0.01 | 0.00 | 70 | 1006.7 |
| 20260505111303 | 67 | 249 | 6.0 | 9.0 | 0.00 | 0.01 | 0.00 | 70 | 1006.7 |
| 20260505111203 | 67 | 257 | 6.0 | 9.0 | 0.00 | 0.01 | 0.00 | 70 | 1006.7 |
| 20260505111103 | 67 | 255 | 6.0 | 9.0 | 0.00 | 0.01 | 0.00 | 70 | 1006.7 |
| 20260505111004 | 67 | 256 | 6.0 | 9.0 | 0.00 | 0.01 | 0.00 | 70 | 1006.7 |
| 20260505110904 | 67 | 261 | 6.0 | 9.0 | 0.00 | 0.01 | 0.00 | 70 | 1006.8 |
| 20260505110804 | 67 | 258 | 6.0 | 9.0 | 0.00 | 0.01 | 0.00 | 71 | 1006.8 |
| 20260505110704 | 67 | 268 | 6.0 | 9.0 | 0.00 | 0.01 | 0.00 | 71 | 1006.7 |
| 20260505110604 | 66 | 264 | 6.0 | 10.0 | 0.00 | 0.01 | 0.00 | 71 | 1006.9 |
| 20260505110504 | 66 | 260 | 6.0 | 10.0 | 0.00 | 0.01 | 0.00 | 71 | 1006.7 |
| 20260505110404 | 66 | 251 | 6.0 | 10.0 | 0.00 | 0.01 | 0.00 | 71 | 1006.7 |
| 20260505110304 | 66 | 249 | 6.0 | 10.0 | 0.00 | 0.01 | 0.00 | 71 | 1006.8 |
| 20260505110204 | 66 | 243 | 6.0 | 10.0 | 0.00 | 0.01 | 0.00 | 71 | 1006.7 |
| 20260505110104 | 66 | 250 | 6.0 | 10.0 | 0.00 | 0.01 | 0.00 | 71 | 1006.8 |
| 20260505102204 | 67 | 258 | 6.0 | 9.0 | 0.00 | 0.01 | 0.00 | 66 | 1006.9 |
| 20260505102104 | 67 | 257 | 6.0 | 9.0 | 0.00 | 0.01 | 0.00 | 65 | 1007.1 |
| 20260505102004 | 67 | 229 | 4.0 | 9.0 | 0.00 | 0.01 | 0.00 | 65 | 1006.9 |
| 20260505101704 | 71 | 164 | 3.0 | 5.0 | 0.00 | 0.01 | 7.39 | 58 | 1007.1 |
| 20260505101604 | 71 | 182 | 3.0 | 5.0 | 0.00 | 0.01 | 7.39 | 58 | 1007.0 |
| 20260505101504 | 71 | 182 | 4.0 | 5.0 | 0.00 | 0.01 | 7.39 | 58 | 1006.8 |
| 20260505101403 | 71 | 171 | 4.0 | 5.0 | 0.00 | 0.01 | 0.00 | 58 | 1006.8 |
| 20260505101355 | 71 | 171 | 4.0 | 5.0 | 0.00 | 0.01 | 0.00 | 58 | 1006.8 |
| 20260504221104 | 58 | 0 | 0.0 | 0.0 | 0.00 | 0.07 | 0.00 | 90 | 1008.1 |
| 20260504221004 | 58 | 0 | 0.0 | 0.0 | 0.00 | 0.07 | 0.00 | 90 | 1008.1 |
| 20260504220904 | 58 | 0 | 0.0 | 0.0 | 0.00 | 0.07 | 0.00 | 90 | 1008.2 |
| 20260504220804 | 58 | 270 | 0.0 | 3.0 | 0.00 | 0.07 | 0.00 | 90 | 1008.1 |
| 20260504220704 | 58 | 288 | 0.0 | 3.0 | 0.00 | 0.07 | 0.00 | 90 | 1008.2 |
| 20260504220604 | 58 | 303 | 1.0 | 3.0 | 0.00 | 0.07 | 0.00 | 90 | 1008.1 |
| 20260504220504 | 58 | 303 | 1.0 | 3.0 | 0.00 | 0.07 | 0.00 | 90 | 1008.1 |
| 20260504220404 | 58 | 303 | 1.0 | 3.0 | 0.00 | 0.07 | 0.00 | 90 | 1008.1 |
| 20260504220304 | 58 | 303 | 1.0 | 3.0 | 0.00 | 0.07 | 0.00 | 90 | 1008.1 |
| 20260504220203 | 58 | 303 | 1.0 | 3.0 | 0.00 | 0.07 | 0.00 | 90 | 1008.1 |
| 20260504220103 | 58 | 303 | 1.0 | 3.0 | 0.00 | 0.07 | 0.00 | 90 | 1008.1 |
| 20260504220047 | 58 | 305 | 1.0 | 3.0 | 0.00 | 0.07 | 0.00 | 90 | 1008.1 |
| 20260504215903 | 58 | 262 | 1.0 | 3.0 | 0.00 | 0.07 | 0.07 | 90 | 1008.1 |
| 20260504215803 | 58 | 257 | 1.0 | 3.0 | 0.00 | 0.07 | 0.07 | 90 | 1008.2 |
| 20260504215703 | 58 | 231 | 1.0 | 3.0 | 0.00 | 0.07 | 0.07 | 90 | 1008.2 |
| 20260504215603 | 58 | 208 | 1.0 | 2.0 | 0.00 | 0.07 | 0.07 | 90 | 1008.2 |
| 20260504215506 | 58 | 205 | 1.0 | 2.0 | 0.00 | 0.07 | 0.07 | 90 | 1008.3 |
| 20260504215404 | 58 | 215 | 1.0 | 4.0 | 0.00 | 0.07 | 0.07 | 90 | 1008.2 |
| 20260504215305 | 58 | 240 | 1.0 | 4.0 | 0.00 | 0.07 | 0.07 | 90 | 1008.2 |
| 20260504215204 | 58 | 240 | 1.0 | 4.0 | 0.00 | 0.07 | 0.07 | 90 | 1008.2 |
| 20260504215104 | 58 | 240 | 1.0 | 4.0 | 0.00 | 0.07 | 0.07 | 90 | 1008.2 |
| 20260504215004 | 58 | 250 | 1.0 | 4.0 | 0.00 | 0.07 | 0.07 | 89 | 1008.2 |
| 20260504214904 | 58 | 260 | 1.0 | 4.0 | 0.00 | 0.07 | 0.07 | 89 | 1008.2 |
| 20260504214804 | 58 | 262 | 1.0 | 4.0 | 0.00 | 0.07 | 0.07 | 89 | 1008.2 |
| 20260504214704 | 58 | 261 | 1.0 | 4.0 | 0.00 | 0.07 | 0.07 | 89 | 1008.2 |
| 20260504214604 | 58 | 261 | 1.0 | 4.0 | 0.00 | 0.07 | 0.07 | 89 | 1008.2 |
| 20260504214503 | 58 | 268 | 1.0 | 4.0 | 0.00 | 0.07 | 0.07 | 89 | 1008.1 |
| 20260504214403 | 58 | 285 | 0.0 | 4.0 | 0.00 | 0.07 | 0.07 | 89 | 1008.2 |
| 20260504214303 | 58 | 0 | 0.0 | 0.0 | 0.00 | 0.07 | 0.07 | 89 | 1008.3 |
| 20260504214203 | 58 | 225 | 0.0 | 2.0 | 0.00 | 0.07 | 0.07 | 89 | 1008.3 |
| 20260504214103 | 58 | 254 | 0.0 | 2.0 | 0.00 | 0.07 | 0.07 | 89 | 1008.4 |
| 20260504214003 | 58 | 256 | 0.0 | 2.0 | 0.00 | 0.07 | 0.07 | 89 | 1008.2 |
| 20260504213903 | 58 | 248 | 0.0 | 2.0 | 0.00 | 0.07 | 0.07 | 89 | 1008.2 |
| 20260504213803 | 58 | 240 | 1.0 | 2.0 | 0.00 | 0.07 | 0.07 | 89 | 1008.4 |
| 20260504213703 | 58 | 236 | 1.0 | 2.0 | 0.00 | 0.07 | 0.07 | 89 | 1008.4 |
| 20260504213603 | 58 | 224 | 1.0 | 2.0 | 0.00 | 0.07 | 0.07 | 89 | 1008.4 |
| 20260504213503 | 58 | 227 | 1.0 | 2.0 | 0.00 | 0.07 | 0.07 | 89 | 1008.3 |
| 20260504213404 | 58 | 225 | 1.0 | 2.0 | 0.00 | 0.07 | 0.07 | 88 | 1008.4 |
| 20260504213304 | 58 | 223 | 1.0 | 2.0 | 0.00 | 0.07 | 0.07 | 88 | 1008.4 |
| 20260504213204 | 58 | 223 | 1.0 | 2.0 | 0.00 | 0.07 | 0.07 | 88 | 1008.4 |
| 20260504213104 | 58 | 211 | 1.0 | 3.0 | 0.00 | 0.07 | 0.07 | 88 | 1008.3 |
| 20260504213004 | 58 | 202 | 1.0 | 3.0 | 0.00 | 0.07 | 0.07 | 88 | 1008.2 |
| 20260504212904 | 58 | 201 | 1.0 | 3.0 | 0.00 | 0.07 | 0.07 | 88 | 1008.4 |
| 20260504212804 | 58 | 200 | 1.0 | 3.0 | 0.00 | 0.07 | 0.07 | 88 | 1008.2 |
| 20260504212704 | 58 | 195 | 1.0 | 3.0 | 0.00 | 0.07 | 0.07 | 88 | 1008.2 |
| 20260504212604 | 58 | 202 | 1.0 | 3.0 | 0.00 | 0.07 | 0.07 | 88 | 1008.3 |
| 20260504212504 | 58 | 195 | 1.0 | 3.0 | 0.00 | 0.07 | 0.07 | 88 | 1008.2 |
| 20260504212403 | 58 | 190 | 1.0 | 3.0 | 0.00 | 0.07 | 0.07 | 88 | 1008.1 |
| 20260504212304 | 58 | 195 | 1.0 | 3.0 | 0.00 | 0.07 | 0.07 | 88 | 1008.2 |
| 20260504212203 | 58 | 195 | 1.0 | 3.0 | 0.00 | 0.07 | 0.07 | 88 | 1008.3 |
| 20260504212104 | 58 | 201 | 2.0 | 3.0 | 0.01 | 0.07 | 0.07 | 88 | 1008.4 |
| 20260504211703 | 58 | 247 | 0.0 | 3.0 | 0.01 | 0.07 | 0.07 | 87 | 1008.3 |
| 20260504211603 | 58 | 251 | 0.0 | 3.0 | 0.01 | 0.07 | 0.07 | 87 | 1008.2 |
| 20260504211503 | 58 | 251 | 0.0 | 3.0 | 0.01 | 0.07 | 0.07 | 87 | 1008.2 |
| 20260504211403 | 58 | 254 | 0.0 | 3.0 | 0.01 | 0.07 | 0.07 | 87 | 1008.2 |
| 20260504211303 | 58 | 270 | 0.0 | 4.0 | 0.01 | 0.07 | 0.07 | 87 | 1008.2 |
| 20260504211203 | 58 | 267 | 1.0 | 4.0 | 0.01 | 0.07 | 0.07 | 87 | 1008.1 |
| 20260504211103 | 58 | 253 | 1.0 | 4.0 | 0.01 | 0.07 | 0.07 | 87 | 1008.2 |
| 20260504211003 | 58 | 246 | 1.0 | 4.0 | 0.01 | 0.07 | 0.07 | 87 | 1008.2 |
| 20260504210903 | 58 | 235 | 1.0 | 4.0 | 0.01 | 0.07 | 0.07 | 87 | 1008.1 |
| 20260504210803 | 58 | 241 | 2.0 | 4.0 | 0.01 | 0.07 | 0.07 | 87 | 1008.3 |
| 20260504210704 | 58 | 246 | 2.0 | 4.0 | 0.01 | 0.07 | 0.07 | 86 | 1008.2 |
| 20260504210604 | 58 | 246 | 2.0 | 4.0 | 0.01 | 0.07 | 0.07 | 86 | 1008.2 |
| 20260504210504 | 59 | 243 | 3.0 | 6.0 | 0.01 | 0.07 | 0.07 | 86 | 1008.3 |
| 20260504210404 | 59 | 240 | 3.0 | 6.0 | 0.01 | 0.07 | 0.07 | 86 | 1008.2 |
| 20260504210304 | 59 | 235 | 4.0 | 6.0 | 0.01 | 0.07 | 0.07 | 86 | 1008.3 |
| 20260504210204 | 59 | 227 | 4.0 | 6.0 | 0.01 | 0.07 | 0.07 | 86 | 1008.4 |
| 20260504210104 | 59 | 225 | 4.0 | 6.0 | 0.01 | 0.07 | 0.07 | 86 | 1008.4 |
| 20260504210004 | 59 | 229 | 4.0 | 6.0 | 0.01 | 0.07 | 0.07 | 86 | 1008.4 |
| 20260504205904 | 59 | 237 | 4.0 | 6.0 | 0.01 | 0.07 | 0.07 | 86 | 1008.5 |
| 20260504205803 | 59 | 237 | 4.0 | 6.0 | 0.01 | 0.07 | 0.07 | 85 | 1008.6 |
| 20260504205704 | 59 | 232 | 4.0 | 6.0 | 0.01 | 0.07 | 0.07 | 85 | 1008.5 |
| 20260504205603 | 59 | 232 | 4.0 | 6.0 | 0.01 | 0.07 | 0.07 | 85 | 1008.7 |
| 20260504205503 | 59 | 229 | 4.0 | 6.0 | 0.01 | 0.07 | 0.07 | 85 | 1008.6 |
| 20260504205403 | 59 | 231 | 4.0 | 6.0 | 0.01 | 0.07 | 0.07 | 85 | 1008.6 |
| 20260504205203 | 59 | 237 | 4.0 | 5.0 | 0.01 | 0.07 | 0.07 | 85 | 1008.4 |
| 20260504205103 | 59 | 244 | 4.0 | 5.0 | 0.01 | 0.07 | 0.07 | 84 | 1008.5 |
| 20260504205003 | 59 | 240 | 4.0 | 5.0 | 0.01 | 0.07 | 0.07 | 84 | 1008.4 |
| 20260504204903 | 59 | 230 | 4.0 | 5.0 | 0.01 | 0.07 | 0.07 | 84 | 1008.4 |
| 20260504204803 | 59 | 229 | 4.0 | 5.0 | 0.01 | 0.07 | 0.07 | 84 | 1008.3 |
| 20260504204704 | 59 | 229 | 4.0 | 5.0 | 0.01 | 0.07 | 0.07 | 84 | 1008.4 |
| 20260504204604 | 59 | 223 | 4.0 | 5.0 | 0.01 | 0.07 | 0.07 | 84 | 1008.3 |
| 20260504204504 | 59 | 217 | 4.0 | 5.0 | 0.01 | 0.07 | 0.07 | 83 | 1008.4 |
| 20260504204404 | 59 | 213 | 3.0 | 5.0 | 0.01 | 0.07 | 0.07 | 83 | 1008.5 |
| 20260504204304 | 59 | 204 | 3.0 | 5.0 | 0.01 | 0.07 | 0.07 | 83 | 1008.5 |
| 20260504204204 | 59 | 204 | 2.0 | 5.0 | 0.01 | 0.07 | 0.07 | 83 | 1008.5 |
| 20260504204104 | 59 | 186 | 2.0 | 5.0 | 0.01 | 0.07 | 0.07 | 83 | 1008.4 |
| 20260504204004 | 59 | 177 | 2.0 | 4.0 | 0.01 | 0.07 | 0.07 | 83 | 1008.3 |
| 20260504203904 | 59 | 179 | 2.0 | 4.0 | 0.01 | 0.07 | 0.07 | 83 | 1008.4 |
| 20260504203804 | 59 | 168 | 2.0 | 5.0 | 0.01 | 0.07 | 0.07 | 83 | 1008.4 |
| 20260504203704 | 59 | 178 | 2.0 | 5.0 | 0.01 | 0.07 | 0.07 | 83 | 1008.4 |
| 20260504203604 | 59 | 190 | 2.0 | 5.0 | 0.01 | 0.07 | 0.07 | 82 | 1008.4 |
| 20260504203503 | 59 | 214 | 3.0 | 7.0 | 0.01 | 0.07 | 0.07 | 82 | 1008.4 |
| 20260504203403 | 59 | 228 | 3.0 | 7.0 | 0.01 | 0.07 | 0.07 | 82 | 1008.5 |
| 20260504203303 | 59 | 231 | 4.0 | 7.0 | 0.01 | 0.07 | 0.07 | 82 | 1008.4 |
| 20260504203204 | 59 | 238 | 4.0 | 7.0 | 0.01 | 0.07 | 0.07 | 82 | 1008.6 |
| 20260504202905 | 59 | 250 | 5.0 | 7.0 | 0.01 | 0.07 | 0.07 | 82 | 1008.6 |
| 20260504202803 | 59 | 257 | 5.0 | 7.0 | 0.01 | 0.07 | 0.07 | 82 | 1008.4 |
| 20260504202603 | 60 | 267 | 5.0 | 7.0 | 0.01 | 0.07 | 0.07 | 81 | 1008.5 |
| 20260504202503 | 60 | 266 | 5.0 | 7.0 | 0.01 | 0.07 | 0.07 | 81 | 1008.4 |
| 20260504202403 | 60 | 265 | 5.0 | 7.0 | 0.01 | 0.07 | 0.07 | 81 | 1008.6 |
| 20260504202304 | 60 | 270 | 5.0 | 6.0 | 0.01 | 0.07 | 0.07 | 81 | 1008.4 |
| 20260504202203 | 60 | 264 | 5.0 | 6.0 | 0.00 | 0.06 | 0.06 | 81 | 1008.5 |
| 20260504202104 | 60 | 260 | 5.0 | 6.0 | 0.00 | 0.06 | 0.06 | 81 | 1008.4 |
| 20260504201704 | 60 | 245 | 5.0 | 8.0 | 0.00 | 0.06 | 0.06 | 80 | 1008.7 |
| 20260504201604 | 60 | 252 | 5.0 | 8.0 | 0.00 | 0.06 | 0.06 | 80 | 1008.6 |
| 20260504201504 | 60 | 260 | 5.0 | 8.0 | 0.00 | 0.06 | 0.06 | 80 | 1008.7 |
| 20260504201404 | 60 | 262 | 5.0 | 8.0 | 0.00 | 0.06 | 0.06 | 80 | 1008.6 |
| 20260504201305 | 60 | 264 | 5.0 | 8.0 | 0.00 | 0.06 | 0.06 | 80 | 1008.7 |
| 20260504201204 | 60 | 266 | 5.0 | 8.0 | 0.00 | 0.06 | 0.06 | 80 | 1008.5 |
| 20260504201104 | 60 | 265 | 5.0 | 8.0 | 0.00 | 0.06 | 0.06 | 80 | 1008.6 |
| 20260504201004 | 60 | 270 | 4.0 | 8.0 | 0.00 | 0.06 | 0.06 | 80 | 1008.5 |
| 20260504200904 | 60 | 284 | 4.0 | 8.0 | 0.00 | 0.06 | 0.06 | 80 | 1008.6 |
| 20260504200805 | 60 | 288 | 4.0 | 5.0 | 0.00 | 0.06 | 0.06 | 80 | 1008.5 |
| 20260504200704 | 60 | 285 | 4.0 | 5.0 | 0.00 | 0.06 | 0.06 | 80 | 1008.6 |
| 20260504200604 | 60 | 280 | 4.0 | 5.0 | 0.00 | 0.06 | 0.06 | 79 | 1008.4 |
| 20260504200504 | 60 | 278 | 4.0 | 5.0 | 0.00 | 0.06 | 0.06 | 79 | 1008.4 |
| 20260504200404 | 60 | 280 | 4.0 | 5.0 | 0.00 | 0.06 | 0.06 | 79 | 1008.4 |
| 20260504200304 | 60 | 278 | 4.0 | 5.0 | 0.00 | 0.06 | 0.06 | 79 | 1008.4 |
| 20260504200203 | 60 | 275 | 4.0 | 8.0 | 0.00 | 0.06 | 0.06 | 79 | 1008.4 |
| 20260504200104 | 60 | 278 | 4.0 | 8.0 | 0.00 | 0.06 | 0.06 | 79 | 1008.4 |
| 20260504200004 | 60 | 281 | 5.0 | 8.0 | 0.00 | 0.06 | 0.06 | 79 | 1008.2 |
| 20260504195903 | 61 | 273 | 5.0 | 8.0 | 0.00 | 0.06 | 0.06 | 78 | 1008.2 |
| 20260504195804 | 61 | 268 | 5.0 | 8.0 | 0.00 | 0.06 | 0.06 | 78 | 1008.4 |
| 20260504195704 | 61 | 270 | 6.0 | 8.0 | 0.00 | 0.06 | 0.06 | 78 | 1008.3 |
| 20260504195603 | 61 | 264 | 6.0 | 8.0 | 0.00 | 0.06 | 0.06 | 78 | 1008.2 |
| 20260504195503 | 61 | 260 | 6.0 | 8.0 | 0.00 | 0.06 | 0.06 | 78 | 1008.3 |
| 20260504195403 | 61 | 258 | 6.0 | 8.0 | 0.00 | 0.06 | 0.06 | 78 | 1008.3 |
| 20260504195304 | 61 | 260 | 7.0 | 8.0 | 0.00 | 0.06 | 0.06 | 78 | 1008.4 |
| 20260504195203 | 61 | 260 | 7.0 | 8.0 | 0.00 | 0.06 | 0.06 | 78 | 1008.4 |
| 20260504195104 | 61 | 259 | 7.0 | 8.0 | 0.00 | 0.06 | 0.06 | 78 | 1008.3 |
| 20260504195004 | 61 | 258 | 7.0 | 8.0 | 0.00 | 0.06 | 0.06 | 78 | 1008.2 |
| 20260504194905 | 61 | 264 | 7.0 | 8.0 | 0.00 | 0.06 | 0.06 | 78 | 1008.2 |
| 20260504194804 | 61 | 272 | 7.0 | 8.0 | 0.00 | 0.06 | 0.06 | 78 | 1008.2 |
| 20260504194705 | 61 | 274 | 6.0 | 8.0 | 0.00 | 0.06 | 0.06 | 78 | 1008.2 |
| 20260504194604 | 61 | 277 | 6.0 | 8.0 | 0.00 | 0.06 | 0.06 | 78 | 1008.3 |
| 20260504194504 | 61 | 283 | 6.0 | 8.0 | 0.00 | 0.06 | 0.06 | 78 | 1008.1 |
| 20260504194404 | 61 | 285 | 5.0 | 8.0 | 0.00 | 0.06 | 0.06 | 78 | 1008.2 |
| 20260504194304 | 61 | 285 | 5.0 | 8.0 | 0.00 | 0.06 | 0.06 | 79 | 1008.1 |
| 20260504194204 | 61 | 286 | 5.0 | 8.0 | 0.00 | 0.06 | 0.06 | 79 | 1008.0 |
| 20260504194104 | 61 | 281 | 4.0 | 8.0 | 0.00 | 0.06 | 0.06 | 79 | 1007.9 |
| 20260504194003 | 61 | 278 | 4.0 | 8.0 | 0.00 | 0.06 | 0.06 | 80 | 1008.0 |
| 20260504193904 | 60 | 275 | 3.0 | 6.0 | 0.00 | 0.06 | 0.06 | 80 | 1007.9 |
| 20260504193803 | 60 | 261 | 3.0 | 4.0 | 0.00 | 0.06 | 0.06 | 80 | 1008.0 |
| 20260504193704 | 60 | 256 | 3.0 | 4.0 | 0.00 | 0.06 | 0.06 | 80 | 1007.9 |
| 20260504193603 | 60 | 264 | 2.0 | 4.0 | 0.00 | 0.06 | 0.06 | 80 | 1007.8 |
| 20260504193503 | 60 | 259 | 2.0 | 4.0 | 0.00 | 0.06 | 0.06 | 80 | 1007.9 |
| 20260504193403 | 60 | 258 | 2.0 | 4.0 | 0.00 | 0.06 | 0.06 | 80 | 1007.8 |
| 20260504193304 | 60 | 251 | 2.0 | 4.0 | 0.00 | 0.06 | 0.06 | 80 | 1007.8 |
| 20260504193206 | 60 | 242 | 2.0 | 4.0 | 0.00 | 0.06 | 0.06 | 80 | 1007.8 |
| 20260504193103 | 60 | 246 | 2.0 | 4.0 | 0.00 | 0.06 | 0.06 | 80 | 1007.8 |
| 20260504193003 | 60 | 247 | 2.0 | 4.0 | 0.00 | 0.06 | 0.06 | 81 | 1007.9 |
| 20260504192903 | 60 | 248 | 2.0 | 4.0 | 0.00 | 0.06 | 0.06 | 81 | 1007.8 |
| 20260504192804 | 60 | 252 | 2.0 | 4.0 | 0.00 | 0.06 | 0.06 | 81 | 1007.8 |
| 20260504192704 | 60 | 255 | 3.0 | 4.0 | 0.00 | 0.06 | 0.06 | 81 | 1007.8 |
| 20260504192604 | 60 | 246 | 3.0 | 4.0 | 0.00 | 0.06 | 0.06 | 81 | 1007.8 |
| 20260504192504 | 60 | 242 | 3.0 | 4.0 | 0.00 | 0.06 | 0.06 | 81 | 1007.8 |
| 20260504192404 | 60 | 239 | 3.0 | 4.0 | 0.00 | 0.06 | 0.06 | 81 | 1007.8 |
| 20260504192304 | 60 | 236 | 3.0 | 4.0 | 0.00 | 0.06 | 0.06 | 81 | 1007.7 |
| 20260504192204 | 60 | 241 | 3.0 | 4.0 | 0.00 | 0.06 | 0.06 | 81 | 1007.8 |
| 20260504192104 | 60 | 239 | 3.0 | 5.0 | 0.00 | 0.06 | 0.06 | 81 | 1007.6 |
| 20260504191704 | 60 | 241 | 4.0 | 5.0 | 0.00 | 0.06 | 0.06 | 81 | 1007.8 |
| 20260504191603 | 60 | 240 | 4.0 | 7.0 | 0.00 | 0.06 | 0.06 | 81 | 1007.6 |
| 20260504191504 | 60 | 235 | 4.0 | 7.0 | 0.00 | 0.06 | 0.06 | 81 | 1007.7 |
| 20260504191404 | 60 | 231 | 4.0 | 8.0 | 0.00 | 0.06 | 0.06 | 81 | 1007.6 |
| 20260504191303 | 60 | 231 | 5.0 | 8.0 | 0.00 | 0.06 | 0.06 | 81 | 1007.7 |
| 20260504191203 | 60 | 231 | 5.0 | 8.0 | 0.00 | 0.06 | 0.06 | 81 | 1007.6 |
| 20260504191103 | 60 | 231 | 5.0 | 8.0 | 0.00 | 0.06 | 0.06 | 81 | 1007.5 |
| 20260504191003 | 60 | 224 | 4.0 | 8.0 | 0.00 | 0.06 | 0.06 | 81 | 1007.5 |
| 20260504190903 | 60 | 220 | 5.0 | 8.0 | 0.00 | 0.06 | 0.06 | 81 | 1007.5 |
| 20260504190803 | 60 | 229 | 5.0 | 8.0 | 0.00 | 0.06 | 0.06 | 81 | 1007.4 |
| 20260504190703 | 60 | 230 | 5.0 | 8.0 | 0.00 | 0.06 | 0.06 | 81 | 1007.6 |
| 20260504190603 | 60 | 233 | 5.0 | 8.0 | 0.00 | 0.06 | 0.06 | 81 | 1007.6 |
| 20260504190504 | 60 | 237 | 5.0 | 8.0 | 0.00 | 0.06 | 0.06 | 81 | 1007.6 |
| 20260504190404 | 60 | 247 | 5.0 | 8.0 | 0.00 | 0.06 | 0.06 | 81 | 1007.5 |
| 20260504190304 | 60 | 246 | 5.0 | 8.0 | 0.00 | 0.06 | 0.06 | 81 | 1007.6 |
| 20260504190204 | 60 | 254 | 5.0 | 8.0 | 0.00 | 0.06 | 0.06 | 81 | 1007.5 |
| 20260504190104 | 60 | 256 | 6.0 | 8.0 | 0.00 | 0.06 | 0.06 | 81 | 1007.6 |
| 20260504190004 | 60 | 251 | 6.0 | 8.0 | 0.00 | 0.06 | 0.06 | 81 | 1007.6 |
| 20260504185904 | 60 | 253 | 6.0 | 8.0 | 0.00 | 0.06 | 0.06 | 81 | 1007.6 |
| 20260504185804 | 60 | 249 | 6.0 | 8.0 | 0.00 | 0.06 | 0.06 | 81 | 1007.6 |
| 20260504185704 | 60 | 247 | 6.0 | 8.0 | 0.00 | 0.06 | 0.06 | 81 | 1007.6 |
| 20260504185604 | 60 | 242 | 6.0 | 8.0 | 0.00 | 0.06 | 0.06 | 81 | 1007.5 |
| 20260504185504 | 60 | 235 | 6.0 | 8.0 | 0.00 | 0.06 | 0.06 | 81 | 1007.5 |
| 20260504185404 | 60 | 230 | 6.0 | 8.0 | 0.00 | 0.06 | 0.06 | 81 | 1007.5 |
| 20260504185304 | 60 | 242 | 6.0 | 8.0 | 0.00 | 0.06 | 0.06 | 81 | 1007.6 |
| 20260504185204 | 60 | 237 | 6.0 | 8.0 | 0.00 | 0.06 | 0.06 | 81 | 1007.6 |
| 20260504185103 | 60 | 242 | 6.0 | 8.0 | 0.00 | 0.06 | 0.06 | 81 | 1007.6 |
| 20260504185003 | 60 | 252 | 5.0 | 8.0 | 0.00 | 0.06 | 0.06 | 81 | 1007.5 |
| 20260504184904 | 60 | 260 | 5.0 | 8.0 | 0.00 | 0.06 | 0.06 | 81 | 1007.6 |
| 20260504184803 | 60 | 260 | 5.0 | 8.0 | 0.00 | 0.06 | 0.06 | 81 | 1007.5 |
| 20260504184703 | 60 | 266 | 5.0 | 8.0 | 0.00 | 0.06 | 0.06 | 81 | 1007.7 |
| 20260504184603 | 60 | 275 | 5.0 | 8.0 | 0.00 | 0.06 | 0.06 | 81 | 1007.5 |
| 20260504184504 | 60 | 282 | 5.0 | 8.0 | 0.00 | 0.06 | 0.06 | 81 | 1007.5 |
| 20260504184404 | 60 | 285 | 5.0 | 8.0 | 0.00 | 0.06 | 0.06 | 81 | 1007.6 |
| 20260504184304 | 60 | 280 | 5.0 | 9.0 | 0.00 | 0.06 | 0.06 | 81 | 1007.4 |
| 20260504184204 | 60 | 276 | 6.0 | 9.0 | 0.00 | 0.06 | 0.06 | 81 | 1007.5 |
| 20260504184104 | 60 | 279 | 6.0 | 9.0 | 0.00 | 0.06 | 0.06 | 81 | 1007.6 |
| 20260504184004 | 60 | 273 | 6.0 | 9.0 | 0.00 | 0.06 | 0.06 | 81 | 1007.6 |
| 20260504183904 | 60 | 270 | 6.0 | 9.0 | 0.00 | 0.06 | 0.06 | 81 | 1007.5 |
| 20260504183804 | 60 | 274 | 6.0 | 9.0 | 0.00 | 0.06 | 0.06 | 81 | 1007.4 |
| 20260504183704 | 60 | 270 | 6.0 | 9.0 | 0.00 | 0.06 | 0.06 | 81 | 1007.3 |
| 20260504183604 | 60 | 263 | 6.0 | 9.0 | 0.00 | 0.06 | 0.06 | 81 | 1007.5 |
| 20260504183504 | 60 | 263 | 7.0 | 9.0 | 0.00 | 0.06 | 0.06 | 81 | 1007.5 |
| 20260504183403 | 60 | 256 | 7.0 | 9.0 | 0.00 | 0.06 | 0.06 | 81 | 1007.3 |
| 20260504183303 | 60 | 254 | 6.0 | 9.0 | 0.00 | 0.06 | 0.06 | 80 | 1007.3 |
| 20260504183203 | 60 | 254 | 6.0 | 8.0 | 0.00 | 0.06 | 0.06 | 80 | 1007.4 |
| 20260504183103 | 60 | 254 | 6.0 | 8.0 | 0.00 | 0.06 | 0.06 | 80 | 1007.5 |
| 20260504183003 | 60 | 262 | 6.0 | 8.0 | 0.00 | 0.06 | 0.06 | 80 | 1007.3 |
| 20260504182903 | 60 | 261 | 6.0 | 8.0 | 0.00 | 0.06 | 0.06 | 80 | 1007.3 |
| 20260504182803 | 60 | 254 | 6.0 | 8.0 | 0.00 | 0.06 | 0.06 | 80 | 1007.4 |
| 20260504182703 | 60 | 259 | 6.0 | 8.0 | 0.00 | 0.06 | 0.06 | 80 | 1007.4 |
| 20260504182603 | 60 | 267 | 6.0 | 8.0 | 0.00 | 0.06 | 0.06 | 80 | 1007.5 |
| 20260504182504 | 60 | 256 | 5.0 | 8.0 | 0.00 | 0.06 | 0.06 | 80 | 1007.5 |
| 20260504182404 | 60 | 267 | 5.0 | 8.0 | 0.00 | 0.06 | 0.06 | 79 | 1007.4 |
| 20260504182304 | 60 | 300 | 5.0 | 8.0 | 0.00 | 0.06 | 0.06 | 79 | 1007.5 |
| 20260504182204 | 60 | 336 | 5.0 | 8.0 | 0.00 | 0.06 | 0.06 | 79 | 1007.5 |
| 20260504182104 | 60 | 333 | 6.0 | 8.0 | 0.00 | 0.06 | 0.06 | 79 | 1007.4 |
| 20260504181704 | 61 | 280 | 6.0 | 8.0 | 0.00 | 0.06 | 0.06 | 78 | 1007.5 |
| 20260504181604 | 61 | 278 | 7.0 | 9.0 | 0.00 | 0.06 | 0.06 | 78 | 1007.6 |
| 20260504181503 | 61 | 288 | 7.0 | 10.0 | 0.00 | 0.06 | 0.06 | 77 | 1007.5 |
| 20260504181404 | 61 | 298 | 7.0 | 10.0 | 0.00 | 0.06 | 0.06 | 77 | 1007.5 |
| 20260504181303 | 61 | 314 | 8.0 | 10.0 | 0.00 | 0.06 | 0.06 | 77 | 1007.6 |
| 20260504181203 | 61 | 326 | 8.0 | 10.0 | 0.00 | 0.06 | 0.06 | 77 | 1007.6 |
| 20260504181103 | 61 | 335 | 8.0 | 10.0 | 0.00 | 0.06 | 0.06 | 76 | 1007.6 |
| 20260504181003 | 61 | 347 | 8.0 | 10.0 | 0.00 | 0.06 | 0.06 | 76 | 1007.5 |
| 20260504180903 | 61 | 344 | 9.0 | 11.0 | 0.00 | 0.06 | 0.06 | 76 | 1007.6 |
| 20260504180803 | 61 | 334 | 9.0 | 11.0 | 0.00 | 0.06 | 0.06 | 76 | 1007.6 |
| 20260504180704 | 62 | 331 | 9.0 | 11.0 | 0.00 | 0.06 | 0.06 | 76 | 1007.5 |
| 20260504180605 | 62 | 334 | 9.0 | 11.0 | 0.00 | 0.06 | 0.06 | 76 | 1007.7 |
| 20260504180504 | 62 | 335 | 9.0 | 11.0 | 0.00 | 0.06 | 0.06 | 75 | 1007.5 |
| 20260504180404 | 62 | 326 | 8.0 | 11.0 | 0.00 | 0.06 | 0.06 | 75 | 1007.6 |
| 20260504180304 | 62 | 313 | 8.0 | 11.0 | 0.00 | 0.06 | 0.06 | 75 | 1007.5 |
| 20260504180204 | 62 | 294 | 7.0 | 11.0 | 0.00 | 0.06 | 0.06 | 75 | 1007.5 |
| 20260504180104 | 62 | 277 | 7.0 | 11.0 | 0.00 | 0.06 | 0.06 | 75 | 1007.8 |
| 20260504180004 | 62 | 256 | 6.0 | 11.0 | 0.00 | 0.06 | 0.06 | 75 | 1007.7 |
| 20260504175904 | 62 | 247 | 6.0 | 11.0 | 0.00 | 0.06 | 0.06 | 75 | 1007.7 |
| 20260504175804 | 62 | 249 | 5.0 | 8.0 | 0.00 | 0.06 | 0.06 | 75 | 1007.7 |
| 20260504175704 | 62 | 255 | 5.0 | 10.0 | 0.00 | 0.06 | 0.06 | 75 | 1007.7 |
| 20260504175603 | 62 | 265 | 6.0 | 10.0 | 0.00 | 0.06 | 0.06 | 75 | 1007.5 |
| 20260504175503 | 62 | 277 | 6.0 | 10.0 | 0.00 | 0.06 | 0.06 | 75 | 1007.7 |
| 20260504175403 | 62 | 288 | 6.0 | 10.0 | 0.00 | 0.06 | 0.06 | 74 | 1007.7 |
| 20260504175304 | 62 | 291 | 7.0 | 10.0 | 0.00 | 0.06 | 0.06 | 74 | 1007.6 |
| 20260504175203 | 62 | 308 | 7.0 | 10.0 | 0.00 | 0.06 | 0.06 | 74 | 1007.8 |
| 20260504175103 | 63 | 306 | 7.0 | 10.0 | 0.00 | 0.06 | 0.06 | 74 | 1007.7 |
| 20260504175003 | 63 | 308 | 7.0 | 10.0 | 0.00 | 0.06 | 0.06 | 74 | 1007.8 |
| 20260504174903 | 63 | 307 | 7.0 | 10.0 | 0.00 | 0.06 | 0.06 | 74 | 1007.8 |
| 20260504174804 | 63 | 296 | 7.0 | 10.0 | 0.00 | 0.06 | 0.06 | 74 | 1007.8 |
| 20260504174704 | 63 | 297 | 7.0 | 10.0 | 0.00 | 0.06 | 0.06 | 74 | 1007.7 |
| 20260504174604 | 63 | 280 | 6.0 | 8.0 | 0.00 | 0.06 | 0.06 | 74 | 1007.7 |
| 20260504174504 | 63 | 273 | 6.0 | 10.0 | 0.00 | 0.06 | 0.06 | 74 | 1007.7 |
| 20260504174404 | 63 | 265 | 6.0 | 10.0 | 0.00 | 0.06 | 0.06 | 73 | 1007.7 |
| 20260504174304 | 63 | 263 | 6.0 | 10.0 | 0.00 | 0.06 | 0.06 | 73 | 1007.8 |
| 20260504174204 | 63 | 256 | 6.0 | 10.0 | 0.00 | 0.06 | 0.06 | 73 | 1007.8 |
| 20260504174104 | 63 | 254 | 6.0 | 10.0 | 0.00 | 0.06 | 0.06 | 73 | 1007.8 |
| 20260504174004 | 63 | 244 | 6.0 | 10.0 | 0.00 | 0.06 | 0.06 | 73 | 1007.7 |
| 20260504173903 | 63 | 248 | 7.0 | 10.0 | 0.00 | 0.06 | 0.06 | 73 | 1007.7 |
| 20260504173803 | 63 | 249 | 7.0 | 10.0 | 0.00 | 0.06 | 0.06 | 73 | 1007.7 |
| 20260504173703 | 64 | 240 | 7.0 | 10.0 | 0.00 | 0.06 | 0.06 | 70 | 1007.7 |
| 20260504173603 | 64 | 239 | 7.0 | 10.0 | 0.00 | 0.06 | 0.06 | 70 | 1007.7 |
| 20260504173503 | 64 | 238 | 7.0 | 8.0 | 0.00 | 0.06 | 0.06 | 70 | 1007.7 |
| 20260504173403 | 64 | 241 | 7.0 | 8.0 | 0.00 | 0.06 | 0.06 | 70 | 1007.7 |
| 20260504173303 | 64 | 248 | 7.0 | 8.0 | 0.00 | 0.06 | 0.06 | 70 | 1007.8 |
| 20260504173203 | 64 | 253 | 7.0 | 8.0 | 0.00 | 0.06 | 0.06 | 70 | 1007.7 |
| 20260504173103 | 64 | 265 | 7.0 | 8.0 | 0.00 | 0.06 | 0.06 | 70 | 1007.8 |
| 20260504173003 | 64 | 277 | 7.0 | 8.0 | 0.00 | 0.06 | 0.06 | 70 | 1007.7 |
| 20260504172904 | 64 | 272 | 7.0 | 8.0 | 0.00 | 0.06 | 0.06 | 70 | 1007.7 |
| 20260504172804 | 64 | 276 | 7.0 | 8.0 | 0.00 | 0.06 | 0.06 | 70 | 1007.6 |
| 20260504172704 | 64 | 287 | 6.0 | 8.0 | 0.00 | 0.06 | 0.06 | 70 | 1007.8 |
| 20260504172604 | 64 | 299 | 6.0 | 8.0 | 0.00 | 0.06 | 0.06 | 70 | 1007.8 |
| 20260504172504 | 64 | 307 | 6.0 | 8.0 | 0.00 | 0.06 | 0.06 | 70 | 1007.8 |
| 20260504172404 | 64 | 316 | 6.0 | 8.0 | 0.00 | 0.06 | 0.06 | 70 | 1007.8 |
| 20260504172304 | 64 | 321 | 6.0 | 8.0 | 0.00 | 0.06 | 0.06 | 70 | 1007.6 |
| 20260504172204 | 64 | 311 | 6.0 | 8.0 | 0.00 | 0.06 | 0.06 | 70 | 1007.7 |
| 20260504172105 | 64 | 294 | 7.0 | 8.0 | 0.00 | 0.06 | 0.06 | 70 | 1007.6 |
| 20260504171704 | 64 | 262 | 6.0 | 10.0 | 0.00 | 0.06 | 0.06 | 70 | 1007.8 |
| 20260504171604 | 64 | 263 | 6.0 | 10.0 | 0.00 | 0.06 | 0.06 | 70 | 1007.8 |
| 20260504171504 | 64 | 269 | 5.0 | 10.0 | 0.00 | 0.06 | 0.06 | 70 | 1007.8 |
| 20260504171403 | 64 | 270 | 5.0 | 10.0 | 0.00 | 0.06 | 0.06 | 70 | 1007.7 |
| 20260504171304 | 64 | 269 | 5.0 | 10.0 | 0.00 | 0.06 | 0.06 | 70 | 1007.6 |
| 20260504171204 | 64 | 264 | 5.0 | 10.0 | 0.00 | 0.06 | 0.06 | 70 | 1007.7 |
| 20260504171103 | 65 | 257 | 5.0 | 10.0 | 0.00 | 0.06 | 0.06 | 70 | 1007.5 |
| 20260504171003 | 65 | 260 | 5.0 | 10.0 | 0.00 | 0.06 | 0.06 | 70 | 1007.7 |
| 20260504170903 | 65 | 261 | 5.0 | 10.0 | 0.00 | 0.06 | 0.06 | 70 | 1007.8 |
| 20260504170803 | 65 | 256 | 5.0 | 10.0 | 0.00 | 0.06 | 0.06 | 70 | 1007.6 |
| 20260504170703 | 65 | 249 | 4.0 | 8.0 | 0.00 | 0.06 | 0.06 | 70 | 1007.7 |
| 20260504170603 | 65 | 240 | 4.0 | 8.0 | 0.00 | 0.06 | 0.06 | 70 | 1007.7 |
| 20260504170504 | 65 | 232 | 3.0 | 8.0 | 0.00 | 0.06 | 0.06 | 70 | 1007.6 |
| 20260504170403 | 65 | 218 | 3.0 | 6.0 | 0.00 | 0.06 | 0.06 | 70 | 1007.6 |
| 20260504170303 | 65 | 215 | 3.0 | 6.0 | 0.00 | 0.06 | 0.06 | 70 | 1007.3 |
| 20260504170203 | 65 | 210 | 2.0 | 6.0 | 0.00 | 0.06 | 0.06 | 70 | 1007.6 |
| 20260504160403 | 67 | 180 | 2.0 | 3.0 | 0.00 | 0.06 | 0.06 | 65 | 1007.7 |
| 20260504160303 | 67 | 179 | 2.0 | 3.0 | 0.00 | 0.06 | 0.06 | 65 | 1007.7 |
| 20260504160203 | 67 | 177 | 1.0 | 3.0 | 0.00 | 0.06 | 0.06 | 65 | 1007.8 |
| 20260504160104 | 67 | 175 | 1.0 | 3.0 | 0.00 | 0.06 | 0.06 | 65 | 1007.6 |